sensor_id;sensor_type;location;lat;lon;timestamp;temperature;humidity
35645;DHT22;21764;52.042;6.830;2023-05-07T00:03:42;14.60;99.90
35645;DHT22;21764;52.042;6.830;2023-05-07T00:08:42;14.60;99.90
35645;DHT22;21764;52.042;6.830;2023-05-07T00:13:43;14.60;99.90
35645;DHT22;21764;52.042;6.830;2023-05-07T00:18:44;14.60;99.90
35645;DHT22;21764;52.042;6.830;2023-05-07T00:23:45;14.60;99.90
35645;DHT22;21764;52.042;6.830;2023-05-07T00:28:46;14.60;99.90
35645;DHT22;21764;52.042;6.830;2023-05-07T00:33:46;14.50;99.90
35645;DHT22;21764;52.042;6.830;2023-05-07T00:38:47;14.40;99.90
35645;DHT22;21764;52.042;6.830;2023-05-07T00:43:47;14.40;99.90
35645;DHT22;21764;52.042;6.830;2023-05-07T00:48:50;14.30;99.90
35645;DHT22;21764;52.042;6.830;2023-05-07T00:53:51;14.30;99.90
35645;DHT22;21764;52.042;6.830;2023-05-07T00:58:51;14.30;99.90
35645;DHT22;21764;52.042;6.830;2023-05-07T01:03:53;14.20;99.90
35645;DHT22;21764;52.042;6.830;2023-05-07T01:08:54;14.20;99.90
35645;DHT22;21764;52.042;6.830;2023-05-07T01:13:59;14.20;99.90
35645;DHT22;21764;52.042;6.830;2023-05-07T01:19:00;14.20;99.90
35645;DHT22;21764;52.042;6.830;2023-05-07T01:24:01;14.20;99.90
35645;DHT22;21764;52.042;6.830;2023-05-07T01:29:02;14.10;99.90
35645;DHT22;21764;52.042;6.830;2023-05-07T01:34:04;14.10;99.90
35645;DHT22;21764;52.042;6.830;2023-05-07T01:39:06;14.00;99.90
35645;DHT22;21764;52.042;6.830;2023-05-07T01:44:08;14.00;99.90
35645;DHT22;21764;52.042;6.830;2023-05-07T01:49:10;14.00;99.90
35645;DHT22;21764;52.042;6.830;2023-05-07T01:54:11;14.00;99.90
35645;DHT22;21764;52.042;6.830;2023-05-07T01:59:11;14.00;99.90
35645;DHT22;21764;52.042;6.830;2023-05-07T02:04:13;14.00;99.90
35645;DHT22;21764;52.042;6.830;2023-05-07T02:09:14;14.00;99.90
35645;DHT22;21764;52.042;6.830;2023-05-07T02:14:15;14.00;99.90
35645;DHT22;21764;52.042;6.830;2023-05-07T02:19:16;13.90;99.90
35645;DHT22;21764;52.042;6.830;2023-05-07T02:24:16;13.90;99.90
35645;DHT22;21764;52.042;6.830;2023-05-07T02:29:17;13.90;99.90
35645;DHT22;21764;52.042;6.830;2023-05-07T02:34:18;13.90;99.90
35645;DHT22;21764;52.042;6.830;2023-05-07T02:39:18;13.80;99.90
35645;DHT22;21764;52.042;6.830;2023-05-07T02:44:19;13.70;99.90
35645;DHT22;21764;52.042;6.830;2023-05-07T02:49:20;13.60;99.90
35645;DHT22;21764;52.042;6.830;2023-05-07T02:54:21;13.50;99.90
35645;DHT22;21764;52.042;6.830;2023-05-07T02:59:21;13.50;99.90
35645;DHT22;21764;52.042;6.830;2023-05-07T03:04:22;13.50;99.90
35645;DHT22;21764;52.042;6.830;2023-05-07T03:09:23;13.50;99.90
35645;DHT22;21764;52.042;6.830;2023-05-07T03:14:23;13.40;99.90
35645;DHT22;21764;52.042;6.830;2023-05-07T03:19:24;13.30;99.90
35645;DHT22;21764;52.042;6.830;2023-05-07T03:24:25;13.20;99.90
35645;DHT22;21764;52.042;6.830;2023-05-07T03:29:26;13.20;99.90
35645;DHT22;21764;52.042;6.830;2023-05-07T03:34:26;13.20;99.90
35645;DHT22;21764;52.042;6.830;2023-05-07T03:39:27;13.20;99.90
35645;DHT22;21764;52.042;6.830;2023-05-07T03:44:27;13.20;99.90
35645;DHT22;21764;52.042;6.830;2023-05-07T03:49:28;13.10;99.90
35645;DHT22;21764;52.042;6.830;2023-05-07T03:54:30;13.00;99.90
35645;DHT22;21764;52.042;6.830;2023-05-07T03:59:31;12.90;99.90
35645;DHT22;21764;52.042;6.830;2023-05-07T04:04:31;12.80;99.90
35645;DHT22;21764;52.042;6.830;2023-05-07T04:09:33;12.70;99.90
35645;DHT22;21764;52.042;6.830;2023-05-07T04:14:33;12.70;99.90
35645;DHT22;21764;52.042;6.830;2023-05-07T04:19:34;12.70;99.90
35645;DHT22;21764;52.042;6.830;2023-05-07T04:24:35;12.80;99.90
35645;DHT22;21764;52.042;6.830;2023-05-07T04:29:35;12.90;99.90
35645;DHT22;21764;52.042;6.830;2023-05-07T04:34:36;13.00;99.90
35645;DHT22;21764;52.042;6.830;2023-05-07T04:39:37;13.10;99.90
35645;DHT22;21764;52.042;6.830;2023-05-07T04:44:37;13.20;99.90
35645;DHT22;21764;52.042;6.830;2023-05-07T04:49:38;13.50;99.90
35645;DHT22;21764;52.042;6.830;2023-05-07T04:54:39;13.90;99.90
35645;DHT22;21764;52.042;6.830;2023-05-07T04:59:40;14.10;99.90
35645;DHT22;21764;52.042;6.830;2023-05-07T05:04:40;13.90;99.90
35645;DHT22;21764;52.042;6.830;2023-05-07T05:09:41;13.70;99.90
35645;DHT22;21764;52.042;6.830;2023-05-07T05:14:41;13.60;99.90
35645;DHT22;21764;52.042;6.830;2023-05-07T05:19:43;13.60;99.90
35645;DHT22;21764;52.042;6.830;2023-05-07T05:24:43;13.50;99.90
35645;DHT22;21764;52.042;6.830;2023-05-07T05:29:44;13.50;99.90
35645;DHT22;21764;52.042;6.830;2023-05-07T05:34:45;13.60;99.90
35645;DHT22;21764;52.042;6.830;2023-05-07T05:39:45;13.60;99.90
35645;DHT22;21764;52.042;6.830;2023-05-07T05:44:46;13.60;99.90
35645;DHT22;21764;52.042;6.830;2023-05-07T05:49:47;13.80;99.90
35645;DHT22;21764;52.042;6.830;2023-05-07T05:54:47;13.80;99.90
35645;DHT22;21764;52.042;6.830;2023-05-07T05:59:48;14.20;99.90
35645;DHT22;21764;52.042;6.830;2023-05-07T06:04:49;14.80;99.90
35645;DHT22;21764;52.042;6.830;2023-05-07T06:09:49;15.10;99.90
35645;DHT22;21764;52.042;6.830;2023-05-07T06:14:50;15.40;99.90
35645;DHT22;21764;52.042;6.830;2023-05-07T06:19:51;15.30;99.90
35645;DHT22;21764;52.042;6.830;2023-05-07T06:24:52;15.30;99.90
35645;DHT22;21764;52.042;6.830;2023-05-07T06:29:53;15.60;99.90
35645;DHT22;21764;52.042;6.830;2023-05-07T06:34:53;16.20;99.90
35645;DHT22;21764;52.042;6.830;2023-05-07T06:39:54;16.40;99.90
35645;DHT22;21764;52.042;6.830;2023-05-07T06:44:55;17.20;99.90
35645;DHT22;21764;52.042;6.830;2023-05-07T06:49:55;17.70;99.90
35645;DHT22;21764;52.042;6.830;2023-05-07T06:54:56;17.00;99.90
35645;DHT22;21764;52.042;6.830;2023-05-07T06:59:57;16.50;99.90
35645;DHT22;21764;52.042;6.830;2023-05-07T07:04:57;16.20;99.90
35645;DHT22;21764;52.042;6.830;2023-05-07T07:09:58;15.90;99.90
35645;DHT22;21764;52.042;6.830;2023-05-07T07:14:59;16.10;99.90
35645;DHT22;21764;52.042;6.830;2023-05-07T07:20:00;16.10;99.90
35645;DHT22;21764;52.042;6.830;2023-05-07T07:25:00;16.40;99.90
35645;DHT22;21764;52.042;6.830;2023-05-07T07:30:01;16.50;99.90
35645;DHT22;21764;52.042;6.830;2023-05-07T07:35:02;16.80;99.90
35645;DHT22;21764;52.042;6.830;2023-05-07T07:40:03;16.80;99.90
35645;DHT22;21764;52.042;6.830;2023-05-07T07:45:04;16.70;99.90
35645;DHT22;21764;52.042;6.830;2023-05-07T07:50:06;16.70;99.90
35645;DHT22;21764;52.042;6.830;2023-05-07T07:55:07;17.50;99.90
35645;DHT22;21764;52.042;6.830;2023-05-07T08:00:08;17.80;99.90
35645;DHT22;21764;52.042;6.830;2023-05-07T08:05:10;17.90;99.90
35645;DHT22;21764;52.042;6.830;2023-05-07T08:10:10;18.30;99.90
35645;DHT22;21764;52.042;6.830;2023-05-07T08:15:11;19.00;99.90
35645;DHT22;21764;52.042;6.830;2023-05-07T08:20:12;19.20;99.90
35645;DHT22;21764;52.042;6.830;2023-05-07T08:25:12;21.00;97.40
35645;DHT22;21764;52.042;6.830;2023-05-07T08:30:14;20.60;97.50
35645;DHT22;21764;52.042;6.830;2023-05-07T08:35:14;21.40;96.40
35645;DHT22;21764;52.042;6.830;2023-05-07T08:40:15;22.90;93.80
35645;DHT22;21764;52.042;6.830;2023-05-07T08:45:17;23.50;92.30
35645;DHT22;21764;52.042;6.830;2023-05-07T08:50:20;24.90;89.60
35645;DHT22;21764;52.042;6.830;2023-05-07T08:55:21;26.00;85.10
35645;DHT22;21764;52.042;6.830;2023-05-07T09:00:22;26.30;82.40
35645;DHT22;21764;52.042;6.830;2023-05-07T09:05:23;27.10;80.20
35645;DHT22;21764;52.042;6.830;2023-05-07T09:10:24;27.60;76.50
35645;DHT22;21764;52.042;6.830;2023-05-07T09:15:27;28.70;72.60
35645;DHT22;21764;52.042;6.830;2023-05-07T09:20:30;28.30;73.60
35645;DHT22;21764;52.042;6.830;2023-05-07T09:25:32;28.10;72.70
35645;DHT22;21764;52.042;6.830;2023-05-07T09:30:34;27.60;74.70
35645;DHT22;21764;52.042;6.830;2023-05-07T09:35:35;29.70;69.60
35645;DHT22;21764;52.042;6.830;2023-05-07T09:40:39;28.60;70.30
35645;DHT22;21764;52.042;6.830;2023-05-07T09:45:41;29.60;67.20
35645;DHT22;21764;52.042;6.830;2023-05-07T09:50:49;29.50;67.50
35645;DHT22;21764;52.042;6.830;2023-05-07T09:55:51;32.40;62.00
35645;DHT22;21764;52.042;6.830;2023-05-07T10:00:52;33.40;60.10
35645;DHT22;21764;52.042;6.830;2023-05-07T10:05:54;32.50;59.30
35645;DHT22;21764;52.042;6.830;2023-05-07T10:10:55;33.10;59.00
35645;DHT22;21764;52.042;6.830;2023-05-07T10:15:56;33.20;58.60
35645;DHT22;21764;52.042;6.830;2023-05-07T10:21:11;32.00;59.10
35645;DHT22;21764;52.042;6.830;2023-05-07T10:26:14;32.80;58.10
35645;DHT22;21764;52.042;6.830;2023-05-07T10:36:38;29.60;64.40
35645;DHT22;21764;52.042;6.830;2023-05-07T10:41:39;29.60;64.00
35645;DHT22;21764;52.042;6.830;2023-05-07T10:46:40;30.00;62.90
35645;DHT22;21764;52.042;6.830;2023-05-07T10:51:41;26.90;69.40
35645;DHT22;21764;52.042;6.830;2023-05-07T10:56:42;26.00;72.90
35645;DHT22;21764;52.042;6.830;2023-05-07T11:01:58;24.70;75.50
35645;DHT22;21764;52.042;6.830;2023-05-07T11:12:09;24.20;76.00
35645;DHT22;21764;52.042;6.830;2023-05-07T11:17:11;24.40;75.30
35645;DHT22;21764;52.042;6.830;2023-05-07T11:27:31;24.30;75.20
35645;DHT22;21764;52.042;6.830;2023-05-07T11:32:32;24.00;77.20
35645;DHT22;21764;52.042;6.830;2023-05-07T11:37:32;24.10;76.60
35645;DHT22;21764;52.042;6.830;2023-05-07T11:42:38;24.00;75.20
35645;DHT22;21764;52.042;6.830;2023-05-07T11:47:41;23.10;78.80
35645;DHT22;21764;52.042;6.830;2023-05-07T11:52:50;23.00;78.80
35645;DHT22;21764;52.042;6.830;2023-05-07T11:57:52;22.60;81.40
35645;DHT22;21764;52.042;6.830;2023-05-07T12:02:52;23.40;78.80
35645;DHT22;21764;52.042;6.830;2023-05-07T12:07:58;24.20;77.80
35645;DHT22;21764;52.042;6.830;2023-05-07T12:12:59;24.10;77.30
35645;DHT22;21764;52.042;6.830;2023-05-07T12:17:59;23.20;79.40
35645;DHT22;21764;52.042;6.830;2023-05-07T12:23:01;22.80;81.20
35645;DHT22;21764;52.042;6.830;2023-05-07T12:28:02;22.90;80.10
35645;DHT22;21764;52.042;6.830;2023-05-07T12:33:05;23.20;80.20
35645;DHT22;21764;52.042;6.830;2023-05-07T12:38:10;23.50;79.40
35645;DHT22;21764;52.042;6.830;2023-05-07T12:43:25;23.40;79.40
35645;DHT22;21764;52.042;6.830;2023-05-07T12:48:26;23.30;79.80
35645;DHT22;21764;52.042;6.830;2023-05-07T12:53:30;23.80;79.10
35645;DHT22;21764;52.042;6.830;2023-05-07T12:58:34;23.80;78.40
35645;DHT22;21764;52.042;6.830;2023-05-07T13:03:36;23.50;79.00
35645;DHT22;21764;52.042;6.830;2023-05-07T13:08:39;23.80;77.90
35645;DHT22;21764;52.042;6.830;2023-05-07T13:13:41;23.70;78.20
35645;DHT22;21764;52.042;6.830;2023-05-07T13:18:41;24.00;76.00
35645;DHT22;21764;52.042;6.830;2023-05-07T13:23:43;23.60;76.60
35645;DHT22;21764;52.042;6.830;2023-05-07T13:28:44;23.40;76.70
35645;DHT22;21764;52.042;6.830;2023-05-07T13:33:45;23.00;77.10
35645;DHT22;21764;52.042;6.830;2023-05-07T13:38:45;23.10;77.10
35645;DHT22;21764;52.042;6.830;2023-05-07T13:43:46;23.30;75.10
35645;DHT22;21764;52.042;6.830;2023-05-07T13:48:47;22.50;77.70
35645;DHT22;21764;52.042;6.830;2023-05-07T13:53:48;23.10;76.60
35645;DHT22;21764;52.042;6.830;2023-05-07T13:58:48;23.00;77.20
35645;DHT22;21764;52.042;6.830;2023-05-07T14:03:49;22.70;77.90
35645;DHT22;21764;52.042;6.830;2023-05-07T14:08:50;22.40;78.40
35645;DHT22;21764;52.042;6.830;2023-05-07T14:13:51;22.20;78.50
35645;DHT22;21764;52.042;6.830;2023-05-07T14:18:51;22.30;78.60
35645;DHT22;21764;52.042;6.830;2023-05-07T14:23:52;22.10;79.90
35645;DHT22;21764;52.042;6.830;2023-05-07T14:28:53;21.70;81.30
35645;DHT22;21764;52.042;6.830;2023-05-07T14:33:55;22.10;79.90
35645;DHT22;21764;52.042;6.830;2023-05-07T14:38:58;21.90;81.10
35645;DHT22;21764;52.042;6.830;2023-05-07T14:43:59;21.80;81.50
35645;DHT22;21764;52.042;6.830;2023-05-07T14:49:02;21.70;80.40
35645;DHT22;21764;52.042;6.830;2023-05-07T14:54:03;21.70;81.50
35645;DHT22;21764;52.042;6.830;2023-05-07T14:59:03;21.40;82.30
35645;DHT22;21764;52.042;6.830;2023-05-07T15:04:04;21.20;82.70
35645;DHT22;21764;52.042;6.830;2023-05-07T15:09:05;21.00;83.90
35645;DHT22;21764;52.042;6.830;2023-05-07T15:14:06;21.10;83.80
35645;DHT22;21764;52.042;6.830;2023-05-07T15:19:06;21.10;83.30
35645;DHT22;21764;52.042;6.830;2023-05-07T15:24:07;20.90;83.30
35645;DHT22;21764;52.042;6.830;2023-05-07T15:29:08;21.00;83.40
35645;DHT22;21764;52.042;6.830;2023-05-07T15:34:10;21.10;83.60
35645;DHT22;21764;52.042;6.830;2023-05-07T15:39:11;21.10;83.50
35645;DHT22;21764;52.042;6.830;2023-05-07T15:44:11;21.00;84.10
35645;DHT22;21764;52.042;6.830;2023-05-07T15:49:12;20.90;83.50
35645;DHT22;21764;52.042;6.830;2023-05-07T15:54:13;20.90;84.60
35645;DHT22;21764;52.042;6.830;2023-05-07T15:59:16;20.70;84.90
35645;DHT22;21764;52.042;6.830;2023-05-07T16:04:16;20.30;88.40
35645;DHT22;21764;52.042;6.830;2023-05-07T16:09:17;20.10;86.50
35645;DHT22;21764;52.042;6.830;2023-05-07T16:14:18;20.30;86.60
35645;DHT22;21764;52.042;6.830;2023-05-07T16:19:18;20.20;86.40
35645;DHT22;21764;52.042;6.830;2023-05-07T16:24:19;20.20;87.00
35645;DHT22;21764;52.042;6.830;2023-05-07T16:29:20;20.20;87.30
35645;DHT22;21764;52.042;6.830;2023-05-07T16:34:22;20.10;88.10
35645;DHT22;21764;52.042;6.830;2023-05-07T16:39:23;20.20;88.20
35645;DHT22;21764;52.042;6.830;2023-05-07T16:44:23;20.10;88.90
35645;DHT22;21764;52.042;6.830;2023-05-07T16:49:24;20.10;89.20
35645;DHT22;21764;52.042;6.830;2023-05-07T16:54:24;20.00;89.80
35645;DHT22;21764;52.042;6.830;2023-05-07T16:59:25;20.10;90.10
35645;DHT22;21764;52.042;6.830;2023-05-07T17:04:28;20.00;89.90
35645;DHT22;21764;52.042;6.830;2023-05-07T17:09:29;19.90;90.00
35645;DHT22;21764;52.042;6.830;2023-05-07T17:14:30;19.90;90.40
35645;DHT22;21764;52.042;6.830;2023-05-07T17:19:30;19.80;90.60
35645;DHT22;21764;52.042;6.830;2023-05-07T17:24:31;19.80;90.70
35645;DHT22;21764;52.042;6.830;2023-05-07T17:29:32;19.70;90.60
35645;DHT22;21764;52.042;6.830;2023-05-07T17:34:32;19.60;91.00
35645;DHT22;21764;52.042;6.830;2023-05-07T17:39:33;19.70;91.00
35645;DHT22;21764;52.042;6.830;2023-05-07T17:44:34;19.60;91.30
35645;DHT22;21764;52.042;6.830;2023-05-07T17:49:35;19.40;91.50
35645;DHT22;21764;52.042;6.830;2023-05-07T17:54:36;19.30;92.10
35645;DHT22;21764;52.042;6.830;2023-05-07T17:59:37;19.30;92.60
35645;DHT22;21764;52.042;6.830;2023-05-07T18:04:38;19.20;93.00
35645;DHT22;21764;52.042;6.830;2023-05-07T18:09:39;19.00;93.20
35645;DHT22;21764;52.042;6.830;2023-05-07T18:14:40;18.90;93.50
35645;DHT22;21764;52.042;6.830;2023-05-07T18:19:41;18.70;93.00
35645;DHT22;21764;52.042;6.830;2023-05-07T18:24:42;18.60;93.30
35645;DHT22;21764;52.042;6.830;2023-05-07T18:29:43;18.50;93.70
35645;DHT22;21764;52.042;6.830;2023-05-07T18:34:43;18.30;93.70
35645;DHT22;21764;52.042;6.830;2023-05-07T18:39:44;18.20;93.80
35645;DHT22;21764;52.042;6.830;2023-05-07T18:44:45;18.00;93.90
35645;DHT22;21764;52.042;6.830;2023-05-07T18:49:46;17.80;93.90
35645;DHT22;21764;52.042;6.830;2023-05-07T18:54:47;17.70;94.10
35645;DHT22;21764;52.042;6.830;2023-05-07T18:59:47;17.60;94.30
35645;DHT22;21764;52.042;6.830;2023-05-07T19:04:48;17.50;94.40
35645;DHT22;21764;52.042;6.830;2023-05-07T19:09:49;17.40;94.60
35645;DHT22;21764;52.042;6.830;2023-05-07T19:14:50;17.30;94.60
35645;DHT22;21764;52.042;6.830;2023-05-07T19:19:50;17.20;94.80
35645;DHT22;21764;52.042;6.830;2023-05-07T19:24:52;17.10;95.10
35645;DHT22;21764;52.042;6.830;2023-05-07T19:29:52;17.10;95.30
35645;DHT22;21764;52.042;6.830;2023-05-07T19:34:53;17.00;95.40
35645;DHT22;21764;52.042;6.830;2023-05-07T19:39:54;16.90;95.80
35645;DHT22;21764;52.042;6.830;2023-05-07T19:44:54;16.80;96.00
35645;DHT22;21764;52.042;6.830;2023-05-07T19:49:55;16.60;96.10
35645;DHT22;21764;52.042;6.830;2023-05-07T19:54:56;16.60;96.20
35645;DHT22;21764;52.042;6.830;2023-05-07T19:59:56;16.50;96.20
35645;DHT22;21764;52.042;6.830;2023-05-07T20:04:57;16.50;96.40
35645;DHT22;21764;52.042;6.830;2023-05-07T20:09:58;16.50;96.40
35645;DHT22;21764;52.042;6.830;2023-05-07T20:14:58;16.40;96.50
35645;DHT22;21764;52.042;6.830;2023-05-07T20:19:59;16.40;96.40
35645;DHT22;21764;52.042;6.830;2023-05-07T20:25:03;16.30;96.50
35645;DHT22;21764;52.042;6.830;2023-05-07T20:30:06;16.30;96.30
35645;DHT22;21764;52.042;6.830;2023-05-07T20:35:07;16.30;96.40
35645;DHT22;21764;52.042;6.830;2023-05-07T20:40:08;16.20;96.40
35645;DHT22;21764;52.042;6.830;2023-05-07T20:45:09;16.20;96.50
35645;DHT22;21764;52.042;6.830;2023-05-07T20:50:10;16.20;96.30
35645;DHT22;21764;52.042;6.830;2023-05-07T20:55:11;16.20;96.30
35645;DHT22;21764;52.042;6.830;2023-05-07T21:00:12;16.20;96.20
35645;DHT22;21764;52.042;6.830;2023-05-07T21:05:12;16.10;96.10
35645;DHT22;21764;52.042;6.830;2023-05-07T21:10:13;16.10;95.90
35645;DHT22;21764;52.042;6.830;2023-05-07T21:15:14;16.00;95.90
35645;DHT22;21764;52.042;6.830;2023-05-07T21:20:15;16.00;95.80
35645;DHT22;21764;52.042;6.830;2023-05-07T21:25:15;16.00;96.00
35645;DHT22;21764;52.042;6.830;2023-05-07T21:30:16;15.90;96.20
35645;DHT22;21764;52.042;6.830;2023-05-07T21:35:17;15.80;96.20
35645;DHT22;21764;52.042;6.830;2023-05-07T21:40:17;15.80;96.30
35645;DHT22;21764;52.042;6.830;2023-05-07T21:45:18;15.80;96.30
35645;DHT22;21764;52.042;6.830;2023-05-07T21:50:19;15.70;96.30
35645;DHT22;21764;52.042;6.830;2023-05-07T21:55:20;15.70;96.30
35645;DHT22;21764;52.042;6.830;2023-05-07T22:00:21;15.70;96.40
35645;DHT22;21764;52.042;6.830;2023-05-07T22:05:23;15.60;96.40
35645;DHT22;21764;52.042;6.830;2023-05-07T22:10:23;15.60;96.50
35645;DHT22;21764;52.042;6.830;2023-05-07T22:15:24;15.60;96.30
35645;DHT22;21764;52.042;6.830;2023-05-07T22:20:25;15.60;96.30
35645;DHT22;21764;52.042;6.830;2023-05-07T22:25:26;15.60;96.10
35645;DHT22;21764;52.042;6.830;2023-05-07T22:30:26;15.50;96.10
35645;DHT22;21764;52.042;6.830;2023-05-07T22:35:27;15.50;96.40
35645;DHT22;21764;52.042;6.830;2023-05-07T22:40:28;15.50;96.50
35645;DHT22;21764;52.042;6.830;2023-05-07T22:45:29;15.50;96.60
35645;DHT22;21764;52.042;6.830;2023-05-07T22:50:29;15.50;96.80
35645;DHT22;21764;52.042;6.830;2023-05-07T22:55:30;15.40;96.90
35645;DHT22;21764;52.042;6.830;2023-05-07T23:00:31;15.30;97.00
35645;DHT22;21764;52.042;6.830;2023-05-07T23:05:32;15.20;97.10
35645;DHT22;21764;52.042;6.830;2023-05-07T23:10:33;15.20;97.00
35645;DHT22;21764;52.042;6.830;2023-05-07T23:15:34;15.10;97.00
35645;DHT22;21764;52.042;6.830;2023-05-07T23:20:35;15.10;97.30
35645;DHT22;21764;52.042;6.830;2023-05-07T23:25:35;15.10;97.50
35645;DHT22;21764;52.042;6.830;2023-05-07T23:30:36;15.00;97.70
35645;DHT22;21764;52.042;6.830;2023-05-07T23:35:39;15.00;97.70
35645;DHT22;21764;52.042;6.830;2023-05-07T23:40:39;15.00;97.60
35645;DHT22;21764;52.042;6.830;2023-05-07T23:45:40;14.90;97.40
35645;DHT22;21764;52.042;6.830;2023-05-07T23:50:41;14.90;97.50
35645;DHT22;21764;52.042;6.830;2023-05-07T23:55:42;14.80;97.50
